sensor_id;sensor_type;location;lat;lon;timestamp;temperature;humidity
5286;DHT22;2665;53.112;7.358;2023-04-06T00:00:39;2.80;99.90
5286;DHT22;2665;53.112;7.358;2023-04-06T00:03:05;2.80;99.90
5286;DHT22;2665;53.112;7.358;2023-04-06T00:05:31;2.80;99.90
5286;DHT22;2665;53.112;7.358;2023-04-06T00:07:57;2.80;99.90
5286;DHT22;2665;53.112;7.358;2023-04-06T00:10:23;2.80;99.90
5286;DHT22;2665;53.112;7.358;2023-04-06T00:12:49;2.70;99.90
5286;DHT22;2665;53.112;7.358;2023-04-06T00:15:14;2.80;99.90
5286;DHT22;2665;53.112;7.358;2023-04-06T00:17:40;2.70;99.90
5286;DHT22;2665;53.112;7.358;2023-04-06T00:20:06;2.70;99.90
5286;DHT22;2665;53.112;7.358;2023-04-06T07:14:51;3.60;99.90
5286;DHT22;2665;53.112;7.358;2023-04-06T07:17:17;3.60;99.90
5286;DHT22;2665;53.112;7.358;2023-04-06T07:19:43;3.70;99.90
5286;DHT22;2665;53.112;7.358;2023-04-06T07:22:09;3.80;99.90
5286;DHT22;2665;53.112;7.358;2023-04-06T07:24:34;4.00;99.90
5286;DHT22;2665;53.112;7.358;2023-04-06T07:27:00;4.10;99.90
5286;DHT22;2665;53.112;7.358;2023-04-06T07:29:26;4.20;99.90
5286;DHT22;2665;53.112;7.358;2023-04-06T07:31:52;4.30;99.90
5286;DHT22;2665;53.112;7.358;2023-04-06T07:34:18;4.50;99.90
5286;DHT22;2665;53.112;7.358;2023-04-06T07:36:44;4.60;99.90
5286;DHT22;2665;53.112;7.358;2023-04-06T07:39:10;4.70;99.90
5286;DHT22;2665;53.112;7.358;2023-04-06T07:41:36;4.80;99.90
5286;DHT22;2665;53.112;7.358;2023-04-06T07:44:02;4.90;99.90
5286;DHT22;2665;53.112;7.358;2023-04-06T07:46:27;5.00;99.90
5286;DHT22;2665;53.112;7.358;2023-04-06T07:48:53;5.10;99.90
5286;DHT22;2665;53.112;7.358;2023-04-06T07:51:19;5.20;99.90
5286;DHT22;2665;53.112;7.358;2023-04-06T07:53:45;5.30;99.90
5286;DHT22;2665;53.112;7.358;2023-04-06T07:56:11;5.40;99.90
5286;DHT22;2665;53.112;7.358;2023-04-06T07:58:37;5.50;99.90
5286;DHT22;2665;53.112;7.358;2023-04-06T08:01:03;5.60;99.90
5286;DHT22;2665;53.112;7.358;2023-04-06T08:03:29;5.70;99.90
5286;DHT22;2665;53.112;7.358;2023-04-06T08:05:55;5.80;99.90
5286;DHT22;2665;53.112;7.358;2023-04-06T08:08:21;5.90;99.90
5286;DHT22;2665;53.112;7.358;2023-04-06T08:10:48;6.00;99.90
5286;DHT22;2665;53.112;7.358;2023-04-06T08:13:14;6.20;99.90
5286;DHT22;2665;53.112;7.358;2023-04-06T08:15:40;6.30;99.90
5286;DHT22;2665;53.112;7.358;2023-04-06T08:18:06;6.40;99.90
5286;DHT22;2665;53.112;7.358;2023-04-06T08:20:31;6.50;99.90
5286;DHT22;2665;53.112;7.358;2023-04-06T08:22:57;6.60;99.90
5286;DHT22;2665;53.112;7.358;2023-04-06T08:25:23;6.70;99.90
5286;DHT22;2665;53.112;7.358;2023-04-06T08:27:48;6.80;99.90
5286;DHT22;2665;53.112;7.358;2023-04-06T08:30:14;7.00;99.90
5286;DHT22;2665;53.112;7.358;2023-04-06T08:32:44;7.10;99.90
5286;DHT22;2665;53.112;7.358;2023-04-06T08:35:10;7.20;99.90
5286;DHT22;2665;53.112;7.358;2023-04-06T08:37:36;7.30;99.90
5286;DHT22;2665;53.112;7.358;2023-04-06T08:40:02;7.50;99.90
5286;DHT22;2665;53.112;7.358;2023-04-06T08:42:32;7.60;99.90
5286;DHT22;2665;53.112;7.358;2023-04-06T08:44:59;7.70;99.90
5286;DHT22;2665;53.112;7.358;2023-04-06T08:47:25;7.80;99.90
5286;DHT22;2665;53.112;7.358;2023-04-06T08:49:52;8.00;99.90
5286;DHT22;2665;53.112;7.358;2023-04-06T08:52:18;8.10;99.90
5286;DHT22;2665;53.112;7.358;2023-04-06T08:54:44;8.30;99.90
5286;DHT22;2665;53.112;7.358;2023-04-06T08:57:11;8.40;99.90
5286;DHT22;2665;53.112;7.358;2023-04-06T08:59:38;8.60;99.90
5286;DHT22;2665;53.112;7.358;2023-04-06T09:02:04;8.70;99.90
5286;DHT22;2665;53.112;7.358;2023-04-06T09:04:34;8.90;99.90
5286;DHT22;2665;53.112;7.358;2023-04-06T09:07:00;9.00;99.90
5286;DHT22;2665;53.112;7.358;2023-04-06T09:09:26;9.10;99.90
5286;DHT22;2665;53.112;7.358;2023-04-06T09:11:52;9.20;99.90
5286;DHT22;2665;53.112;7.358;2023-04-06T09:14:36;9.40;99.90
5286;DHT22;2665;53.112;7.358;2023-04-06T09:17:02;9.50;99.90
5286;DHT22;2665;53.112;7.358;2023-04-06T09:19:28;9.70;99.90
5286;DHT22;2665;53.112;7.358;2023-04-06T09:22:04;9.90;99.90
5286;DHT22;2665;53.112;7.358;2023-04-06T09:24:57;10.00;99.90
5286;DHT22;2665;53.112;7.358;2023-04-06T09:27:37;10.00;99.90
5286;DHT22;2665;53.112;7.358;2023-04-06T09:30:08;10.20;99.90
5286;DHT22;2665;53.112;7.358;2023-04-06T09:33:04;10.40;99.90
5286;DHT22;2665;53.112;7.358;2023-04-06T09:35:30;10.40;99.90
5286;DHT22;2665;53.112;7.358;2023-04-06T09:37:57;10.40;99.90
5286;DHT22;2665;53.112;7.358;2023-04-06T09:40:23;10.60;99.90
5286;DHT22;2665;53.112;7.358;2023-04-06T09:42:49;10.90;99.90
5286;DHT22;2665;53.112;7.358;2023-04-06T09:45:18;11.10;99.90
5286;DHT22;2665;53.112;7.358;2023-04-06T09:47:45;11.20;99.90
5286;DHT22;2665;53.112;7.358;2023-04-06T09:50:12;11.30;99.90
5286;DHT22;2665;53.112;7.358;2023-04-06T09:52:48;11.40;99.90
5286;DHT22;2665;53.112;7.358;2023-04-06T09:55:23;11.50;99.90
5286;DHT22;2665;53.112;7.358;2023-04-06T09:57:59;11.60;99.90
5286;DHT22;2665;53.112;7.358;2023-04-06T10:00:28;11.70;99.90
5286;DHT22;2665;53.112;7.358;2023-04-06T10:06:00;11.70;99.90
5286;DHT22;2665;53.112;7.358;2023-04-06T10:08:30;11.80;99.90
5286;DHT22;2665;53.112;7.358;2023-04-06T10:10:58;11.90;99.90
5286;DHT22;2665;53.112;7.358;2023-04-06T10:13:26;11.90;99.90
5286;DHT22;2665;53.112;7.358;2023-04-06T10:15:52;12.10;99.90
5286;DHT22;2665;53.112;7.358;2023-04-06T10:18:17;12.20;99.90
5286;DHT22;2665;53.112;7.358;2023-04-06T10:21:34;12.30;99.90
5286;DHT22;2665;53.112;7.358;2023-04-06T10:24:01;12.40;99.90
5286;DHT22;2665;53.112;7.358;2023-04-06T10:26:27;12.50;99.90
5286;DHT22;2665;53.112;7.358;2023-04-06T10:28:54;12.70;99.90
5286;DHT22;2665;53.112;7.358;2023-04-06T10:31:27;12.90;99.90
5286;DHT22;2665;53.112;7.358;2023-04-06T10:34:02;12.90;99.90
5286;DHT22;2665;53.112;7.358;2023-04-06T10:36:32;13.00;99.90
5286;DHT22;2665;53.112;7.358;2023-04-06T10:39:02;13.00;99.90
5286;DHT22;2665;53.112;7.358;2023-04-06T10:41:42;12.90;99.90
5286;DHT22;2665;53.112;7.358;2023-04-06T10:44:17;13.10;99.90
5286;DHT22;2665;53.112;7.358;2023-04-06T10:46:53;13.30;99.90
5286;DHT22;2665;53.112;7.358;2023-04-06T10:49:19;13.40;99.90
5286;DHT22;2665;53.112;7.358;2023-04-06T10:51:45;13.40;99.90
5286;DHT22;2665;53.112;7.358;2023-04-06T10:54:11;13.60;99.90
5286;DHT22;2665;53.112;7.358;2023-04-06T10:56:38;13.60;99.90
5286;DHT22;2665;53.112;7.358;2023-04-06T10:59:05;13.60;99.90
5286;DHT22;2665;53.112;7.358;2023-04-06T11:01:31;13.60;99.90
5286;DHT22;2665;53.112;7.358;2023-04-06T11:03:57;13.90;99.90
5286;DHT22;2665;53.112;7.358;2023-04-06T11:06:27;14.20;99.90
5286;DHT22;2665;53.112;7.358;2023-04-06T11:08:55;14.30;99.90
5286;DHT22;2665;53.112;7.358;2023-04-06T11:11:23;14.50;99.90
5286;DHT22;2665;53.112;7.358;2023-04-06T11:13:53;14.50;99.90
5286;DHT22;2665;53.112;7.358;2023-04-06T11:21:16;17.50;99.90
5286;DHT22;2665;53.112;7.358;2023-04-06T11:23:42;17.50;99.90
5286;DHT22;2665;53.112;7.358;2023-04-06T11:26:14;17.50;99.90
5286;DHT22;2665;53.112;7.358;2023-04-06T11:28:43;17.10;99.90
5286;DHT22;2665;53.112;7.358;2023-04-06T11:31:10;17.60;99.90
5286;DHT22;2665;53.112;7.358;2023-04-06T11:33:39;17.50;99.90
5286;DHT22;2665;53.112;7.358;2023-04-06T11:36:05;17.40;99.90
5286;DHT22;2665;53.112;7.358;2023-04-06T11:38:32;17.60;99.90
5286;DHT22;2665;53.112;7.358;2023-04-06T11:40:57;17.70;99.90
5286;DHT22;2665;53.112;7.358;2023-04-06T11:43:29;17.40;99.90
5286;DHT22;2665;53.112;7.358;2023-04-06T11:46:00;17.00;99.90
5286;DHT22;2665;53.112;7.358;2023-04-06T11:48:27;16.70;99.90
5286;DHT22;2665;53.112;7.358;2023-04-06T11:50:57;16.70;99.90
5286;DHT22;2665;53.112;7.358;2023-04-06T11:53:24;16.50;99.90
5286;DHT22;2665;53.112;7.358;2023-04-06T11:55:50;16.20;99.90
5286;DHT22;2665;53.112;7.358;2023-04-06T11:58:16;16.00;99.90
5286;DHT22;2665;53.112;7.358;2023-04-06T12:00:42;15.70;99.90
5286;DHT22;2665;53.112;7.358;2023-04-06T12:03:11;15.70;99.90
5286;DHT22;2665;53.112;7.358;2023-04-06T12:05:37;15.90;99.90
5286;DHT22;2665;53.112;7.358;2023-04-06T12:08:03;16.00;99.90
5286;DHT22;2665;53.112;7.358;2023-04-06T12:10:28;16.00;99.90
5286;DHT22;2665;53.112;7.358;2023-04-06T12:12:54;16.30;99.90
5286;DHT22;2665;53.112;7.358;2023-04-06T12:15:20;16.70;99.90
5286;DHT22;2665;53.112;7.358;2023-04-06T12:17:45;16.70;99.90
5286;DHT22;2665;53.112;7.358;2023-04-06T12:20:11;16.60;99.90
5286;DHT22;2665;53.112;7.358;2023-04-06T12:22:37;16.50;99.90
5286;DHT22;2665;53.112;7.358;2023-04-06T12:25:03;16.40;99.90
5286;DHT22;2665;53.112;7.358;2023-04-06T12:27:28;16.20;99.90
5286;DHT22;2665;53.112;7.358;2023-04-06T12:29:54;16.30;99.90
5286;DHT22;2665;53.112;7.358;2023-04-06T12:32:21;16.50;99.90
5286;DHT22;2665;53.112;7.358;2023-04-06T12:34:47;17.00;99.90
5286;DHT22;2665;53.112;7.358;2023-04-06T12:37:12;17.30;99.90
5286;DHT22;2665;53.112;7.358;2023-04-06T12:39:38;17.80;99.90
5286;DHT22;2665;53.112;7.358;2023-04-06T12:42:03;17.90;99.90
5286;DHT22;2665;53.112;7.358;2023-04-06T12:44:29;17.80;99.90
5286;DHT22;2665;53.112;7.358;2023-04-06T12:46:55;17.50;99.90
5286;DHT22;2665;53.112;7.358;2023-04-06T12:49:21;17.20;99.90
5286;DHT22;2665;53.112;7.358;2023-04-06T12:51:47;17.00;99.90
5286;DHT22;2665;53.112;7.358;2023-04-06T12:54:12;16.60;99.90
5286;DHT22;2665;53.112;7.358;2023-04-06T12:56:38;16.30;99.90
5286;DHT22;2665;53.112;7.358;2023-04-06T12:59:04;16.20;99.90
5286;DHT22;2665;53.112;7.358;2023-04-06T13:01:30;16.00;99.90
5286;DHT22;2665;53.112;7.358;2023-04-06T13:03:56;15.70;99.90
5286;DHT22;2665;53.112;7.358;2023-04-06T13:06:23;15.70;99.90
5286;DHT22;2665;53.112;7.358;2023-04-06T13:08:52;16.20;99.90
5286;DHT22;2665;53.112;7.358;2023-04-06T13:11:18;16.30;99.90
5286;DHT22;2665;53.112;7.358;2023-04-06T13:13:45;16.40;99.90
5286;DHT22;2665;53.112;7.358;2023-04-06T13:16:11;16.60;99.90
5286;DHT22;2665;53.112;7.358;2023-04-06T13:18:37;16.80;99.90
5286;DHT22;2665;53.112;7.358;2023-04-06T13:21:07;16.80;99.90
5286;DHT22;2665;53.112;7.358;2023-04-06T13:23:33;16.70;99.90
5286;DHT22;2665;53.112;7.358;2023-04-06T13:26:06;16.40;99.90
5286;DHT22;2665;53.112;7.358;2023-04-06T13:28:33;16.20;99.90
5286;DHT22;2665;53.112;7.358;2023-04-06T13:31:00;16.20;99.90
5286;DHT22;2665;53.112;7.358;2023-04-06T13:33:27;16.40;99.90
5286;DHT22;2665;53.112;7.358;2023-04-06T13:35:53;16.50;99.90
5286;DHT22;2665;53.112;7.358;2023-04-06T13:38:18;16.70;99.90
5286;DHT22;2665;53.112;7.358;2023-04-06T13:40:44;16.80;99.90
5286;DHT22;2665;53.112;7.358;2023-04-06T13:43:10;16.60;99.90
5286;DHT22;2665;53.112;7.358;2023-04-06T13:45:37;16.30;99.90
5286;DHT22;2665;53.112;7.358;2023-04-06T13:48:03;16.10;99.90
5286;DHT22;2665;53.112;7.358;2023-04-06T13:50:29;16.00;99.90
5286;DHT22;2665;53.112;7.358;2023-04-06T13:52:55;15.90;99.90
5286;DHT22;2665;53.112;7.358;2023-04-06T13:55:21;16.00;99.90
5286;DHT22;2665;53.112;7.358;2023-04-06T13:57:49;16.30;99.90
5286;DHT22;2665;53.112;7.358;2023-04-06T14:00:15;16.40;99.90
5286;DHT22;2665;53.112;7.358;2023-04-06T14:02:41;16.50;99.90
5286;DHT22;2665;53.112;7.358;2023-04-06T14:05:07;16.40;99.90
5286;DHT22;2665;53.112;7.358;2023-04-06T14:07:33;16.50;99.90
5286;DHT22;2665;53.112;7.358;2023-04-06T14:09:58;16.50;99.90
5286;DHT22;2665;53.112;7.358;2023-04-06T14:12:24;16.40;99.90
5286;DHT22;2665;53.112;7.358;2023-04-06T14:14:50;16.00;99.90
5286;DHT22;2665;53.112;7.358;2023-04-06T14:17:15;15.70;99.90
5286;DHT22;2665;53.112;7.358;2023-04-06T14:19:41;15.50;99.90
5286;DHT22;2665;53.112;7.358;2023-04-06T14:22:08;15.20;99.90
5286;DHT22;2665;53.112;7.358;2023-04-06T14:24:34;15.00;99.90
5286;DHT22;2665;53.112;7.358;2023-04-06T14:27:01;15.00;99.90
5286;DHT22;2665;53.112;7.358;2023-04-06T14:29:27;14.80;99.90
5286;DHT22;2665;53.112;7.358;2023-04-06T14:31:53;14.70;99.90
5286;DHT22;2665;53.112;7.358;2023-04-06T14:34:25;14.60;99.90
5286;DHT22;2665;53.112;7.358;2023-04-06T14:36:51;14.50;99.90
5286;DHT22;2665;53.112;7.358;2023-04-06T14:39:17;14.60;99.90
5286;DHT22;2665;53.112;7.358;2023-04-06T14:41:42;14.60;99.90
5286;DHT22;2665;53.112;7.358;2023-04-06T14:44:08;14.60;99.90
5286;DHT22;2665;53.112;7.358;2023-04-06T14:46:37;14.60;99.90
5286;DHT22;2665;53.112;7.358;2023-04-06T14:49:03;14.70;99.90
5286;DHT22;2665;53.112;7.358;2023-04-06T14:51:29;14.90;99.90
5286;DHT22;2665;53.112;7.358;2023-04-06T14:53:55;14.90;99.90
5286;DHT22;2665;53.112;7.358;2023-04-06T14:56:21;14.80;99.90
5286;DHT22;2665;53.112;7.358;2023-04-06T14:58:48;14.70;99.90
5286;DHT22;2665;53.112;7.358;2023-04-06T15:01:14;14.70;99.90
5286;DHT22;2665;53.112;7.358;2023-04-06T15:03:39;14.70;99.90
5286;DHT22;2665;53.112;7.358;2023-04-06T15:06:12;14.70;99.90
5286;DHT22;2665;53.112;7.358;2023-04-06T15:08:38;14.80;99.90
5286;DHT22;2665;53.112;7.358;2023-04-06T15:11:04;15.00;99.90
5286;DHT22;2665;53.112;7.358;2023-04-06T15:13:30;15.10;99.90
5286;DHT22;2665;53.112;7.358;2023-04-06T15:15:56;15.20;99.90
5286;DHT22;2665;53.112;7.358;2023-04-06T15:18:21;15.30;99.90
5286;DHT22;2665;53.112;7.358;2023-04-06T15:20:47;15.20;99.90
5286;DHT22;2665;53.112;7.358;2023-04-06T15:23:13;15.00;99.90
5286;DHT22;2665;53.112;7.358;2023-04-06T15:25:38;14.70;99.90
5286;DHT22;2665;53.112;7.358;2023-04-06T15:28:06;14.50;99.90
5286;DHT22;2665;53.112;7.358;2023-04-06T15:30:32;14.40;99.90
5286;DHT22;2665;53.112;7.358;2023-04-06T15:33:00;14.30;99.90
5286;DHT22;2665;53.112;7.358;2023-04-06T15:35:26;14.20;99.90
5286;DHT22;2665;53.112;7.358;2023-04-06T15:37:54;14.10;99.90
5286;DHT22;2665;53.112;7.358;2023-04-06T15:40:20;14.00;99.90
5286;DHT22;2665;53.112;7.358;2023-04-06T15:42:45;14.00;99.90
5286;DHT22;2665;53.112;7.358;2023-04-06T15:45:11;13.90;99.90
5286;DHT22;2665;53.112;7.358;2023-04-06T15:47:38;13.80;99.90
5286;DHT22;2665;53.112;7.358;2023-04-06T15:50:04;13.70;99.90
5286;DHT22;2665;53.112;7.358;2023-04-06T15:52:30;13.50;99.90
5286;DHT22;2665;53.112;7.358;2023-04-06T15:54:56;13.50;99.90
5286;DHT22;2665;53.112;7.358;2023-04-06T15:57:22;13.40;99.90
5286;DHT22;2665;53.112;7.358;2023-04-06T15:59:47;13.30;99.90
5286;DHT22;2665;53.112;7.358;2023-04-06T16:02:13;13.20;99.90
5286;DHT22;2665;53.112;7.358;2023-04-06T16:04:39;13.10;99.90
5286;DHT22;2665;53.112;7.358;2023-04-06T16:07:04;13.10;99.90
5286;DHT22;2665;53.112;7.358;2023-04-06T16:09:30;13.10;99.90
5286;DHT22;2665;53.112;7.358;2023-04-06T16:11:56;13.00;99.90
5286;DHT22;2665;53.112;7.358;2023-04-06T16:14:22;13.00;99.90
5286;DHT22;2665;53.112;7.358;2023-04-06T16:16:47;12.90;99.90
5286;DHT22;2665;53.112;7.358;2023-04-06T16:19:15;12.90;99.90
5286;DHT22;2665;53.112;7.358;2023-04-06T16:21:40;12.80;99.90
5286;DHT22;2665;53.112;7.358;2023-04-06T16:24:06;12.80;99.90
5286;DHT22;2665;53.112;7.358;2023-04-06T16:26:33;12.80;99.90
5286;DHT22;2665;53.112;7.358;2023-04-06T16:29:00;12.70;99.90
5286;DHT22;2665;53.112;7.358;2023-04-06T16:31:26;12.70;99.90
5286;DHT22;2665;53.112;7.358;2023-04-06T16:33:52;12.60;99.90
5286;DHT22;2665;53.112;7.358;2023-04-06T16:36:26;12.60;99.90
5286;DHT22;2665;53.112;7.358;2023-04-06T16:38:54;12.60;99.90
5286;DHT22;2665;53.112;7.358;2023-04-06T16:41:19;12.60;99.90
5286;DHT22;2665;53.112;7.358;2023-04-06T16:43:46;12.50;99.90
5286;DHT22;2665;53.112;7.358;2023-04-06T16:46:12;12.40;99.90
5286;DHT22;2665;53.112;7.358;2023-04-06T16:48:37;12.40;99.90
5286;DHT22;2665;53.112;7.358;2023-04-06T16:51:04;12.30;99.90
5286;DHT22;2665;53.112;7.358;2023-04-06T16:53:30;12.30;99.90
5286;DHT22;2665;53.112;7.358;2023-04-06T16:55:56;12.30;99.90
5286;DHT22;2665;53.112;7.358;2023-04-06T16:58:21;12.20;99.90
5286;DHT22;2665;53.112;7.358;2023-04-06T17:00:47;12.10;99.90
5286;DHT22;2665;53.112;7.358;2023-04-06T17:03:13;12.00;99.90
5286;DHT22;2665;53.112;7.358;2023-04-06T17:05:38;12.00;99.90
5286;DHT22;2665;53.112;7.358;2023-04-06T17:08:04;11.90;99.90
5286;DHT22;2665;53.112;7.358;2023-04-06T17:10:30;11.80;99.90
5286;DHT22;2665;53.112;7.358;2023-04-06T17:12:55;11.70;99.90
5286;DHT22;2665;53.112;7.358;2023-04-06T17:15:21;11.70;99.90
5286;DHT22;2665;53.112;7.358;2023-04-06T17:17:49;11.60;99.90
5286;DHT22;2665;53.112;7.358;2023-04-06T17:20:15;11.60;99.90
5286;DHT22;2665;53.112;7.358;2023-04-06T17:22:40;11.50;99.90
5286;DHT22;2665;53.112;7.358;2023-04-06T17:25:07;11.50;99.90
5286;DHT22;2665;53.112;7.358;2023-04-06T17:27:33;11.40;99.90
5286;DHT22;2665;53.112;7.358;2023-04-06T17:29:59;11.40;99.90
5286;DHT22;2665;53.112;7.358;2023-04-06T17:32:31;11.30;99.90
5286;DHT22;2665;53.112;7.358;2023-04-06T17:34:56;11.10;99.90
5286;DHT22;2665;53.112;7.358;2023-04-06T17:37:22;11.00;99.90
5286;DHT22;2665;53.112;7.358;2023-04-06T17:39:48;10.90;99.90
5286;DHT22;2665;53.112;7.358;2023-04-06T17:42:13;10.80;99.90
5286;DHT22;2665;53.112;7.358;2023-04-06T17:44:39;10.60;99.90
5286;DHT22;2665;53.112;7.358;2023-04-06T17:47:05;10.50;99.90
5286;DHT22;2665;53.112;7.358;2023-04-06T17:49:30;10.50;99.90
5286;DHT22;2665;53.112;7.358;2023-04-06T17:51:56;10.40;99.90
5286;DHT22;2665;53.112;7.358;2023-04-06T17:54:22;10.30;99.90
5286;DHT22;2665;53.112;7.358;2023-04-06T17:56:47;10.30;99.90
5286;DHT22;2665;53.112;7.358;2023-04-06T17:59:14;10.20;99.90
5286;DHT22;2665;53.112;7.358;2023-04-06T18:01:39;10.20;99.90
5286;DHT22;2665;53.112;7.358;2023-04-06T18:04:05;10.10;99.90
5286;DHT22;2665;53.112;7.358;2023-04-06T18:06:31;10.00;99.90
5286;DHT22;2665;53.112;7.358;2023-04-06T18:08:58;10.00;99.90
5286;DHT22;2665;53.112;7.358;2023-04-06T18:11:24;9.90;99.90
5286;DHT22;2665;53.112;7.358;2023-04-06T18:13:51;9.90;99.90
5286;DHT22;2665;53.112;7.358;2023-04-06T18:16:17;9.80;99.90
5286;DHT22;2665;53.112;7.358;2023-04-06T18:18:45;9.80;99.90
5286;DHT22;2665;53.112;7.358;2023-04-06T18:21:11;9.70;99.90
5286;DHT22;2665;53.112;7.358;2023-04-06T18:23:36;9.70;99.90
5286;DHT22;2665;53.112;7.358;2023-04-06T18:26:03;9.60;99.90
5286;DHT22;2665;53.112;7.358;2023-04-06T18:28:28;9.50;99.90
5286;DHT22;2665;53.112;7.358;2023-04-06T18:30:56;9.40;99.90
5286;DHT22;2665;53.112;7.358;2023-04-06T18:33:22;9.40;99.90
5286;DHT22;2665;53.112;7.358;2023-04-06T18:35:47;9.30;99.90
5286;DHT22;2665;53.112;7.358;2023-04-06T18:38:13;9.30;99.90
5286;DHT22;2665;53.112;7.358;2023-04-06T18:40:39;9.20;99.90
5286;DHT22;2665;53.112;7.358;2023-04-06T18:43:06;9.20;99.90
5286;DHT22;2665;53.112;7.358;2023-04-06T18:45:36;9.10;99.90
5286;DHT22;2665;53.112;7.358;2023-04-06T18:48:05;9.00;99.90
5286;DHT22;2665;53.112;7.358;2023-04-06T18:50:31;9.00;99.90
5286;DHT22;2665;53.112;7.358;2023-04-06T18:52:57;8.90;99.90
5286;DHT22;2665;53.112;7.358;2023-04-06T18:55:22;8.90;99.90
5286;DHT22;2665;53.112;7.358;2023-04-06T18:57:48;8.90;99.90
5286;DHT22;2665;53.112;7.358;2023-04-06T19:00:14;8.80;99.90
5286;DHT22;2665;53.112;7.358;2023-04-06T19:02:43;8.80;99.90
5286;DHT22;2665;53.112;7.358;2023-04-06T19:05:10;8.80;99.90
5286;DHT22;2665;53.112;7.358;2023-04-06T19:07:36;8.80;99.90
5286;DHT22;2665;53.112;7.358;2023-04-06T19:10:04;8.80;99.90
5286;DHT22;2665;53.112;7.358;2023-04-06T19:12:33;8.70;99.90
5286;DHT22;2665;53.112;7.358;2023-04-06T19:14:59;8.70;99.90
5286;DHT22;2665;53.112;7.358;2023-04-06T19:17:25;8.70;99.90
5286;DHT22;2665;53.112;7.358;2023-04-06T19:19:51;8.70;99.90
5286;DHT22;2665;53.112;7.358;2023-04-06T19:22:16;8.70;99.90
5286;DHT22;2665;53.112;7.358;2023-04-06T19:24:42;8.70;99.90
5286;DHT22;2665;53.112;7.358;2023-04-06T19:27:08;8.70;99.90
5286;DHT22;2665;53.112;7.358;2023-04-06T19:29:34;8.60;99.90
5286;DHT22;2665;53.112;7.358;2023-04-06T19:32:00;8.60;99.90
5286;DHT22;2665;53.112;7.358;2023-04-06T19:34:26;8.60;99.90
5286;DHT22;2665;53.112;7.358;2023-04-06T19:36:53;8.60;99.90
5286;DHT22;2665;53.112;7.358;2023-04-06T19:39:19;8.60;99.90
5286;DHT22;2665;53.112;7.358;2023-04-06T19:41:45;8.60;99.90
5286;DHT22;2665;53.112;7.358;2023-04-06T19:44:10;8.60;99.90
5286;DHT22;2665;53.112;7.358;2023-04-06T19:46:36;8.60;99.90
5286;DHT22;2665;53.112;7.358;2023-04-06T19:49:02;8.60;99.90
5286;DHT22;2665;53.112;7.358;2023-04-06T19:51:31;8.60;99.90
5286;DHT22;2665;53.112;7.358;2023-04-06T19:53:58;8.60;99.90
5286;DHT22;2665;53.112;7.358;2023-04-06T19:56:24;8.60;99.90
5286;DHT22;2665;53.112;7.358;2023-04-06T19:58:50;8.60;99.90
5286;DHT22;2665;53.112;7.358;2023-04-06T20:01:15;8.60;99.90
5286;DHT22;2665;53.112;7.358;2023-04-06T20:03:41;8.60;99.90
5286;DHT22;2665;53.112;7.358;2023-04-06T20:06:07;8.50;99.90
5286;DHT22;2665;53.112;7.358;2023-04-06T20:08:33;8.50;1.00
5286;DHT22;2665;53.112;7.358;2023-04-06T20:11:00;8.60;1.00
5286;DHT22;2665;53.112;7.358;2023-04-06T20:13:26;8.50;1.00
5286;DHT22;2665;53.112;7.358;2023-04-06T20:15:52;8.50;1.00
5286;DHT22;2665;53.112;7.358;2023-04-06T20:18:17;8.50;1.00
5286;DHT22;2665;53.112;7.358;2023-04-06T20:20:43;8.50;1.00
5286;DHT22;2665;53.112;7.358;2023-04-06T20:23:09;8.40;50.50
5286;DHT22;2665;53.112;7.358;2023-04-06T20:25:37;8.40;99.90
5286;DHT22;2665;53.112;7.358;2023-04-06T20:28:03;8.40;99.90
5286;DHT22;2665;53.112;7.358;2023-04-06T20:30:30;8.30;1.00
5286;DHT22;2665;53.112;7.358;2023-04-06T20:32:55;8.30;1.00
5286;DHT22;2665;53.112;7.358;2023-04-06T20:35:21;8.30;1.00
5286;DHT22;2665;53.112;7.358;2023-04-06T20:37:47;8.30;1.00
5286;DHT22;2665;53.112;7.358;2023-04-06T20:40:12;8.30;99.90
5286;DHT22;2665;53.112;7.358;2023-04-06T20:42:38;8.20;99.90
5286;DHT22;2665;53.112;7.358;2023-04-06T20:45:04;8.20;99.90
5286;DHT22;2665;53.112;7.358;2023-04-06T20:47:31;8.20;99.90
5286;DHT22;2665;53.112;7.358;2023-04-06T20:49:56;8.20;1.00
5286;DHT22;2665;53.112;7.358;2023-04-06T20:52:22;8.10;1.00
5286;DHT22;2665;53.112;7.358;2023-04-06T20:54:48;8.10;99.90
5286;DHT22;2665;53.112;7.358;2023-04-06T20:57:15;8.10;99.90
5286;DHT22;2665;53.112;7.358;2023-04-06T20:59:41;8.10;1.00
5286;DHT22;2665;53.112;7.358;2023-04-06T21:02:07;8.10;1.00
5286;DHT22;2665;53.112;7.358;2023-04-06T21:04:36;8.10;1.00
5286;DHT22;2665;53.112;7.358;2023-04-06T21:07:05;8.00;99.90
5286;DHT22;2665;53.112;7.358;2023-04-06T21:09:35;8.00;99.90
5286;DHT22;2665;53.112;7.358;2023-04-06T21:12:02;8.00;99.90
5286;DHT22;2665;53.112;7.358;2023-04-06T21:14:28;8.00;1.00
5286;DHT22;2665;53.112;7.358;2023-04-06T21:16:53;8.00;99.90
5286;DHT22;2665;53.112;7.358;2023-04-06T21:19:21;8.00;1.00
5286;DHT22;2665;53.112;7.358;2023-04-06T21:21:47;8.00;1.00
5286;DHT22;2665;53.112;7.358;2023-04-06T21:24:12;8.00;1.00
5286;DHT22;2665;53.112;7.358;2023-04-06T21:26:38;8.00;99.90
5286;DHT22;2665;53.112;7.358;2023-04-06T21:29:03;8.00;99.90
5286;DHT22;2665;53.112;7.358;2023-04-06T21:31:29;8.00;99.90
5286;DHT22;2665;53.112;7.358;2023-04-06T21:33:55;8.00;99.90
5286;DHT22;2665;53.112;7.358;2023-04-06T21:36:21;8.00;99.90
5286;DHT22;2665;53.112;7.358;2023-04-06T21:38:46;7.90;47.80
5286;DHT22;2665;53.112;7.358;2023-04-06T21:41:12;7.90;99.90
5286;DHT22;2665;53.112;7.358;2023-04-06T21:43:38;7.90;1.00
5286;DHT22;2665;53.112;7.358;2023-04-06T21:46:03;7.90;99.90
5286;DHT22;2665;53.112;7.358;2023-04-06T21:48:29;7.90;99.90
5286;DHT22;2665;53.112;7.358;2023-04-06T21:50:54;7.90;1.00
5286;DHT22;2665;53.112;7.358;2023-04-06T21:53:20;7.80;1.00
5286;DHT22;2665;53.112;7.358;2023-04-06T21:55:46;7.80;99.90
5286;DHT22;2665;53.112;7.358;2023-04-06T21:58:13;7.80;99.90
5286;DHT22;2665;53.112;7.358;2023-04-06T22:00:39;7.80;99.90
5286;DHT22;2665;53.112;7.358;2023-04-06T22:03:05;7.70;99.90
5286;DHT22;2665;53.112;7.358;2023-04-06T22:05:31;7.80;1.00
5286;DHT22;2665;53.112;7.358;2023-04-06T22:07:57;7.80;1.00
5286;DHT22;2665;53.112;7.358;2023-04-06T22:10:23;7.80;1.00
5286;DHT22;2665;53.112;7.358;2023-04-06T22:12:49;7.80;1.00
5286;DHT22;2665;53.112;7.358;2023-04-06T22:15:16;7.80;1.00
5286;DHT22;2665;53.112;7.358;2023-04-06T22:17:41;7.70;1.00
5286;DHT22;2665;53.112;7.358;2023-04-06T22:20:07;7.80;1.00
5286;DHT22;2665;53.112;7.358;2023-04-06T22:22:33;7.80;1.00
5286;DHT22;2665;53.112;7.358;2023-04-06T22:24:59;7.70;1.00
5286;DHT22;2665;53.112;7.358;2023-04-06T22:27:26;7.70;1.00
5286;DHT22;2665;53.112;7.358;2023-04-06T22:29:51;7.70;1.00
5286;DHT22;2665;53.112;7.358;2023-04-06T22:32:17;7.70;1.00
5286;DHT22;2665;53.112;7.358;2023-04-06T22:34:43;7.70;1.00
5286;DHT22;2665;53.112;7.358;2023-04-06T22:37:08;7.60;12.80
5286;DHT22;2665;53.112;7.358;2023-04-06T22:39:34;7.60;7.90
5286;DHT22;2665;53.112;7.358;2023-04-06T22:42:00;7.60;21.10
5286;DHT22;2665;53.112;7.358;2023-04-06T22:44:26;7.50;17.80
5286;DHT22;2665;53.112;7.358;2023-04-06T22:46:51;7.50;7.30
5286;DHT22;2665;53.112;7.358;2023-04-06T22:49:17;7.40;19.20
5286;DHT22;2665;53.112;7.358;2023-04-06T22:51:43;7.40;24.40
5286;DHT22;2665;53.112;7.358;2023-04-06T22:54:09;7.40;14.40
5286;DHT22;2665;53.112;7.358;2023-04-06T22:56:36;7.40;35.20
5286;DHT22;2665;53.112;7.358;2023-04-06T22:59:01;7.40;72.60
5286;DHT22;2665;53.112;7.358;2023-04-06T23:01:27;7.40;83.50
5286;DHT22;2665;53.112;7.358;2023-04-06T23:03:54;7.40;73.00
5286;DHT22;2665;53.112;7.358;2023-04-06T23:06:20;7.30;70.30